Terminal Aerodrome Forecast
Issued by NWS

Home | Current Version | Previous Version | Text Only | Print | Product List | Glossary On
Versions: 1 2 3 4 5 6 7 8 9 10 11 12 13 14
398
FTUS43 KDTX 312327
TAFDET
TAF
KDET 312327Z 0100/0124 07007KT P6SM SCT150 BKN250
     FM011400 12007KT P6SM BKN200
     FM012200 15010KT 6SM -SHRA OVC070=

USA.gov is the U.S. government's official web portal to all federal, state and local government web resources and services.